createdAt,value
2023-01-05T00:00:14.288Z,100050.66
2023-01-05T00:01:16.316Z,100054.75
2023-01-05T00:02:24.017Z,100047.84
2023-01-05T00:03:22.088Z,100048.55
2023-01-05T00:04:24.255Z,100045.13
2023-01-05T00:05:26.472Z,100043.45
2023-01-05T00:06:28.473Z,100040.05
2023-01-05T00:07:30.531Z,100034.66
2023-01-05T00:08:37.101Z,100041.63
2023-01-05T00:09:36.544Z,100033.66
2023-01-05T00:10:38.709Z,100033.98
2023-01-05T00:11:40.584Z,100035.54
2023-01-05T00:12:42.504Z,100035.46
2023-01-05T00:13:44.376Z,100027.51
2023-01-05T00:14:46.260Z,100017.32
2023-01-05T00:15:48.133Z,100016.52
2023-01-05T00:16:50.955Z,100017.38
2023-01-05T00:17:53.662Z,100014.69
2023-01-05T00:18:55.546Z,100024.36
2023-01-05T00:19:58.633Z,100005.11
2023-01-05T00:21:02.461Z,100008.48
2023-01-05T00:22:17.240Z,100001.73
2023-01-05T00:23:19.883Z,100000.05
2023-01-05T00:24:21.775Z,100003.54
2023-01-05T00:25:26.663Z,99995.59
2023-01-05T00:26:29.323Z,99991.16
2023-01-05T00:27:32.782Z,99986.73
2023-01-05T00:28:34.758Z,99988.49
2023-01-05T00:29:36.624Z,99979.00
2023-01-05T00:30:44.895Z,99982.67
2023-01-05T00:31:46.857Z,99974.05
2023-01-05T00:32:49.745Z,99979.95
2023-01-05T00:33:51.665Z,99974.66
2023-01-05T00:34:55.572Z,99966.87
2023-01-05T00:35:57.488Z,99961.52
2023-01-05T00:36:59.557Z,99953.70
2023-01-05T00:38:01.754Z,99950.36
2023-01-05T00:39:03.609Z,99950.33
2023-01-05T00:40:12.441Z,99954.95
2023-01-05T00:41:14.486Z,99942.62
2023-01-05T00:42:16.676Z,99946.29
2023-01-05T00:43:18.547Z,99939.03
2023-01-05T00:44:20.419Z,99933.21
2023-01-05T00:45:22.797Z,99932.33
2023-01-05T00:46:24.933Z,99940.09
2023-01-05T00:47:27.821Z,99934.03
2023-01-05T00:48:30.022Z,99927.14
2023-01-05T00:49:34.381Z,99920.23
2023-01-05T00:50:36.530Z,99915.03
2023-01-05T00:51:38.408Z,99912.31
2023-01-05T00:52:41.076Z,99916.72
2023-01-05T00:53:42.978Z,99904.34
2023-01-05T00:54:45.331Z,99905.48
2023-01-05T00:55:56.256Z,99907.02
2023-01-05T00:56:58.857Z,99903.55
2023-01-05T00:58:00.971Z,99894.92
2023-01-05T00:59:02.934Z,99903.55
2023-01-05T01:00:07.715Z,99899.98
2023-01-05T01:01:11.311Z,99904.55
2023-01-05T01:02:14.272Z,99898.28
2023-01-05T01:03:16.305Z,99889.65
2023-01-05T01:04:18.547Z,99880.89
2023-01-05T01:05:20.596Z,99883.53
2023-01-05T01:06:23.415Z,99884.41
2023-01-05T01:07:25.303Z,99885.45
2023-01-05T01:08:27.387Z,99864.37
2023-01-05T01:09:30.659Z,99858.49
2023-01-05T01:10:33.054Z,99857.44
2023-01-05T01:11:35.830Z,99852.11
2023-01-05T01:12:38.775Z,99849.37
2023-01-05T01:13:40.760Z,99850.64
2023-01-05T01:14:46.480Z,99846.25
2023-01-05T01:15:48.660Z,99839.16
2023-01-05T01:16:50.975Z,99831.44
2023-01-05T01:17:53.134Z,99831.32
2023-01-05T01:18:56.331Z,99831.53
2023-01-05T01:20:00.509Z,99828.77
2023-01-05T01:21:03.573Z,99828.89
2023-01-05T01:22:05.482Z,99830.41
2023-01-05T01:23:07.360Z,99823.41
2023-01-05T01:24:18.474Z,99823.38
2023-01-05T01:25:20.485Z,99821.95
2023-01-05T01:26:22.994Z,99807.83
2023-01-05T01:27:24.871Z,99808.84
2023-01-05T01:28:26.749Z,99807.95
2023-01-05T01:29:28.899Z,99814.95
2023-01-05T01:30:31.458Z,99817.41
2023-01-05T01:31:34.303Z,99809.47
2023-01-05T01:32:36.282Z,99798.98
2023-01-05T01:33:38.979Z,99802.44
2023-01-05T01:35:43.003Z,99789.30
2023-01-05T01:36:46.397Z,99794.67
2023-01-05T01:37:48.299Z,99793.64
2023-01-05T01:38:50.170Z,99794.64
2023-01-05T01:39:52.105Z,99793.51
2023-01-05T01:40:54.733Z,99781.55
2023-01-05T01:41:56.721Z,99779.03
2023-01-05T01:42:58.688Z,99770.24
2023-01-05T01:44:00.708Z,99786.59
2023-01-05T01:45:15.498Z,99778.97
2023-01-05T01:46:20.191Z,99778.81
2023-01-05T01:48:54.449Z,99768.19
2023-01-05T01:50:00.236Z,99761.64
2023-01-05T01:51:08.883Z,99756.03
2023-01-05T01:52:11.383Z,99756.26
2023-01-05T01:53:17.057Z,99750.09
2023-01-05T01:54:19.091Z,99740.66
2023-01-05T01:55:22.082Z,99740.03
2023-01-05T01:56:29.023Z,99733.68
2023-01-05T01:57:32.953Z,99732.77
2023-01-05T01:58:35.317Z,99732.05
2023-01-05T01:59:37.394Z,99717.46
2023-01-05T02:00:40.680Z,99714.59
2023-01-05T02:01:42.880Z,99712.15
2023-01-05T02:02:48.245Z,99709.47
2023-01-05T02:03:50.625Z,99709.30
2023-01-05T02:04:54.634Z,99705.11
2023-01-05T02:05:57.854Z,99695.31
2023-01-05T02:07:02.262Z,99699.69
2023-01-05T02:08:07.987Z,99694.55
2023-01-05T02:09:10.135Z,99692.25
2023-01-05T02:10:14.997Z,99691.13
2023-01-05T02:11:23.735Z,99681.55
2023-01-05T02:14:25.819Z,99673.34
2023-01-05T02:15:40.446Z,99677.84
2023-01-05T02:18:06.532Z,99660.16
2023-01-05T02:19:38.249Z,99660.19
2023-01-05T02:20:59.405Z,99655.16
2023-01-05T02:22:20.707Z,99655.96
2023-01-05T02:23:52.463Z,99639.66
2023-01-05T02:25:18.348Z,99638.81
2023-01-05T02:26:39.470Z,99635.98
2023-01-05T02:28:00.274Z,99628.56
2023-01-05T02:29:36.700Z,99629.96
2023-01-05T02:30:48.153Z,99620.45
2023-01-05T02:32:11.929Z,99621.08
2023-01-05T02:33:38.590Z,99622.17
2023-01-05T02:35:01.233Z,99614.28
2023-01-05T02:36:07.940Z,99617.22
2023-01-05T02:37:16.371Z,99612.05
2023-01-05T02:38:34.129Z,99589.05
2023-01-05T02:39:52.316Z,99594.11
2023-01-05T02:40:58.092Z,99587.33
2023-01-05T02:42:09.595Z,99594.08
2023-01-05T02:43:13.151Z,99593.12
2023-01-05T02:44:17.648Z,99589.74
2023-01-05T02:45:21.677Z,99595.92
2023-01-05T02:46:24.072Z,99595.00
2023-01-05T02:47:30.095Z,99594.92
2023-01-05T02:48:33.898Z,99593.12
2023-01-05T02:49:39.916Z,99586.30
2023-01-05T02:50:55.177Z,99579.63
2023-01-05T02:51:59.486Z,99579.63
2023-01-05T02:53:20.157Z,99578.51
2023-01-05T02:54:32.147Z,99591.35
2023-01-05T02:57:01.195Z,99564.80
2023-01-05T02:58:06.922Z,99572.06
2023-01-05T02:59:18.696Z,99570.57
2023-01-05T03:00:27.977Z,99567.34
2023-01-05T03:01:34.657Z,99563.47
2023-01-05T03:02:41.117Z,99556.77
2023-01-05T03:03:56.320Z,99560.14
2023-01-05T03:05:02.069Z,99558.53
2023-01-05T03:06:11.016Z,99550.63
2023-01-05T03:07:20.402Z,99550.55
2023-01-05T03:08:30.584Z,99546.10
2023-01-05T03:09:31.756Z,99545.09
2023-01-05T03:12:11.769Z,99530.29
2023-01-05T03:13:14.009Z,99534.22
2023-01-05T03:14:19.715Z,99529.53
2023-01-05T03:15:28.265Z,99519.91
2023-01-05T03:16:34.139Z,99515.36
2023-01-05T03:17:45.727Z,99513.00
2023-01-05T03:18:51.488Z,99510.47
2023-01-05T03:19:56.421Z,99511.31
2023-01-05T03:21:00.329Z,99503.37
2023-01-05T03:22:15.324Z,99502.45
2023-01-05T03:23:19.732Z,99492.81
2023-01-05T03:24:22.023Z,99493.91
2023-01-05T03:25:25.983Z,99487.80
2023-01-05T03:26:28.479Z,99467.91
2023-01-05T03:27:31.745Z,99474.47
2023-01-05T03:28:37.423Z,99468.83
2023-01-05T03:29:39.363Z,99471.28
2023-01-05T03:31:05.328Z,99464.08
2023-01-05T03:32:23.017Z,99460.92
2023-01-05T03:33:31.670Z,99462.48
2023-01-05T03:34:43.560Z,99455.33
2023-01-05T03:35:49.913Z,99451.03
2023-01-05T03:37:02.477Z,99439.05
2023-01-05T03:38:08.197Z,99447.80
2023-01-05T03:39:13.960Z,99439.86
2023-01-05T03:40:20.164Z,99446.08
2023-01-05T03:41:23.497Z,99432.23
2023-01-05T03:42:27.900Z,99432.77
2023-01-05T03:43:35.587Z,99435.27
2023-01-05T03:44:39.651Z,99434.59
2023-01-05T03:45:52.463Z,99439.09
2023-01-05T03:46:55.948Z,99434.55
2023-01-05T03:47:58.065Z,99430.55
2023-01-05T03:49:01.000Z,99430.77
2023-01-05T03:50:03.867Z,99425.84
2023-01-05T03:51:06.912Z,99424.54
2023-01-05T03:52:09.185Z,99423.03
2023-01-05T03:53:11.390Z,99409.91
2023-01-05T03:54:13.302Z,99409.11
2023-01-05T03:55:16.022Z,99410.66
2023-01-05T03:56:18.743Z,99403.84
2023-01-05T03:57:20.633Z,99402.12
2023-01-05T03:58:22.713Z,99395.16
2023-01-05T03:59:24.836Z,99397.88
2023-01-05T04:00:26.959Z,99388.25
2023-01-05T04:01:29.202Z,99386.61
2023-01-05T04:02:31.547Z,99390.36
2023-01-05T04:03:33.867Z,99380.60
2023-01-05T04:04:35.988Z,99368.99
2023-01-05T04:05:37.884Z,99375.21
2023-01-05T04:06:40.886Z,99374.16
2023-01-05T04:07:43.259Z,99364.61
2023-01-05T04:08:45.327Z,99367.30
2023-01-05T04:09:47.368Z,99357.67
2023-01-05T04:10:52.420Z,99362.93
2023-01-05T04:11:54.458Z,99356.88
2023-01-05T04:12:56.573Z,99357.09
2023-01-05T04:13:58.658Z,99350.73
2023-01-05T04:15:00.559Z,99343.30
2023-01-05T04:16:03.354Z,99347.33
2023-01-05T04:17:05.514Z,99335.30
2023-01-05T04:18:07.692Z,99335.30
2023-01-05T04:19:11.202Z,99330.89
2023-01-05T04:20:13.739Z,99336.33
2023-01-05T04:21:16.337Z,99323.25
2023-01-05T04:22:23.677Z,99327.66
2023-01-05T04:23:22.163Z,99319.05
2023-01-05T04:24:24.028Z,99320.77
2023-01-05T04:25:26.015Z,99320.73
2023-01-05T04:26:28.229Z,99315.37
2023-01-05T04:27:30.206Z,99312.82
2023-01-05T04:28:32.669Z,99311.58
2023-01-05T04:29:34.753Z,99316.31
2023-01-05T04:30:36.836Z,99303.97
2023-01-05T04:31:39.076Z,99299.55
2023-01-05T04:32:41.194Z,99299.78
2023-01-05T04:33:43.175Z,99291.08
2023-01-05T04:34:45.945Z,99288.38
2023-01-05T04:35:47.848Z,99280.65
2023-01-05T04:36:49.902Z,99280.65
2023-01-05T04:37:51.818Z,99286.09
2023-01-05T04:38:53.844Z,99275.39
2023-01-05T04:39:55.706Z,99275.30
2023-01-05T04:40:57.671Z,99270.92
2023-01-05T04:41:59.748Z,99270.17
2023-01-05T04:43:01.847Z,99264.17
2023-01-05T04:44:04.945Z,99264.36
2023-01-05T04:45:08.251Z,99255.47
2023-01-05T04:46:10.927Z,99260.02
2023-01-05T04:47:12.955Z,99254.05
2023-01-05T04:48:16.498Z,99253.66
2023-01-05T04:49:18.637Z,99252.86
2023-01-05T04:50:21.933Z,99243.23
2023-01-05T04:51:25.539Z,99237.22
2023-01-05T04:52:27.855Z,99226.70
2023-01-05T04:53:30.036Z,99219.06
2023-01-05T04:54:31.895Z,99219.06
2023-01-05T04:55:33.807Z,99226.74
2023-01-05T04:56:36.910Z,99216.36
2023-01-05T04:57:38.937Z,99216.50
2023-01-05T04:58:40.832Z,99212.04
2023-01-05T04:59:42.987Z,99219.62
2023-01-05T05:00:45.862Z,99211.90
2023-01-05T05:01:47.893Z,99209.89
2023-01-05T05:02:50.558Z,99204.82
2023-01-05T05:03:53.189Z,99194.30
2023-01-05T05:04:55.472Z,99200.24
2023-01-05T05:05:57.611Z,99190.89
2023-01-05T05:06:59.685Z,99189.31
2023-01-05T05:08:01.699Z,99182.33
2023-01-05T05:09:03.937Z,99188.05
2023-01-05T05:10:07.662Z,99183.58
2023-01-05T05:11:09.564Z,99182.69
2023-01-05T05:12:11.854Z,99175.55
2023-01-05T05:13:14.093Z,99176.77
2023-01-05T05:14:16.559Z,99170.03
2023-01-05T05:15:19.945Z,99178.41
2023-01-05T05:16:22.346Z,99175.95
2023-01-05T05:17:24.745Z,99180.81
2023-01-05T05:18:26.767Z,99181.56
2023-01-05T05:19:28.654Z,99175.50
2023-01-05T05:20:31.651Z,99170.44
2023-01-05T05:21:33.687Z,99170.98
2023-01-05T05:22:35.680Z,99166.84
2023-01-05T05:23:37.762Z,99168.52
2023-01-05T05:24:40.045Z,99170.92
2023-01-05T05:25:42.191Z,99158.04
2023-01-05T05:26:44.399Z,99161.52
2023-01-05T05:27:46.391Z,99157.00
2023-01-05T05:28:48.289Z,99148.25
2023-01-05T05:29:50.200Z,99159.40
2023-01-05T05:30:52.460Z,99149.66
2023-01-05T05:31:54.466Z,99144.64
2023-01-05T05:32:56.630Z,99148.73
2023-01-05T05:33:58.701Z,99148.09
2023-01-05T05:35:00.609Z,99148.04
2023-01-05T05:36:03.458Z,99152.41
2023-01-05T05:37:05.983Z,99146.31
2023-01-05T05:38:08.477Z,99138.69
2023-01-05T05:39:14.760Z,99136.87
2023-01-05T05:40:17.682Z,99132.59
2023-01-05T05:41:19.575Z,99132.97
2023-01-05T05:42:21.457Z,99136.41
2023-01-05T05:43:23.599Z,99126.28
2023-01-05T05:44:25.666Z,99116.42
2023-01-05T05:45:27.681Z,99114.49
2023-01-05T05:46:30.698Z,99112.16
2023-01-05T05:47:33.996Z,99102.37
2023-01-05T05:48:36.563Z,99099.82
2023-01-05T05:49:38.821Z,99102.59
2023-01-05T05:50:40.938Z,99109.28
2023-01-05T05:51:43.091Z,99110.16
2023-01-05T05:52:45.197Z,99101.66
2023-01-05T05:53:47.707Z,99097.38
2023-01-05T05:54:49.913Z,99091.94
2023-01-05T05:55:51.824Z,99085.84
2023-01-05T05:56:54.006Z,99090.02
2023-01-05T05:57:55.975Z,99085.69
2023-01-05T05:59:01.623Z,99090.95
2023-01-05T06:00:04.398Z,99071.80
2023-01-05T06:01:07.120Z,99076.86
2023-01-05T06:02:09.616Z,99060.83
2023-01-05T06:03:14.330Z,99074.36
2023-01-05T06:04:16.392Z,99062.87
2023-01-05T06:05:18.606Z,99062.15
2023-01-05T06:06:20.880Z,99061.98
2023-01-05T06:07:22.946Z,99055.16
2023-01-05T06:08:25.145Z,99063.05
2023-01-05T06:09:27.194Z,99040.37
2023-01-05T06:10:30.812Z,99044.39
2023-01-05T06:11:33.056Z,99035.72
2023-01-05T06:12:35.304Z,99035.72
2023-01-05T06:13:37.972Z,99033.95
2023-01-05T06:14:39.951Z,99037.23
2023-01-05T06:15:42.796Z,99029.52
2023-01-05T06:16:44.896Z,99014.34
2023-01-05T06:17:47.309Z,99035.13
2023-01-05T06:18:51.197Z,99039.06
2023-01-05T06:19:55.531Z,99039.06
2023-01-05T06:21:01.709Z,99025.56
2023-01-05T06:22:02.675Z,99026.34
2023-01-05T06:23:05.740Z,99019.67
2023-01-05T06:24:07.776Z,99025.44
2023-01-05T06:25:10.931Z,99019.67
2023-01-05T06:26:15.156Z,99019.67
2023-01-05T06:27:17.058Z,99025.61
2023-01-05T06:28:20.616Z,99026.22
2023-01-05T06:29:22.874Z,99026.56
2023-01-05T06:30:25.953Z,99017.78
2023-01-05T06:31:28.278Z,99005.45
2023-01-05T06:32:30.634Z,99005.56
2023-01-05T06:33:32.769Z,99011.63
2023-01-05T06:34:35.059Z,99008.97
2023-01-05T06:35:38.769Z,99007.95
2023-01-05T06:36:40.970Z,99013.84
2023-01-05T06:37:43.510Z,99003.28
2023-01-05T06:38:45.382Z,99004.27
2023-01-05T06:39:47.351Z,99000.12
2023-01-05T06:40:49.595Z,99015.66
2023-01-05T06:41:51.465Z,99003.51
2023-01-05T06:42:53.358Z,98998.17
2023-01-05T06:43:56.085Z,98993.88
2023-01-05T06:44:58.082Z,98999.16
2023-01-05T06:45:59.998Z,98993.83
2023-01-05T06:47:02.538Z,98990.28
2023-01-05T06:48:05.364Z,98992.54
2023-01-05T06:49:09.153Z,98988.81
2023-01-05T06:50:11.659Z,98984.47
2023-01-05T06:51:13.643Z,98980.63
2023-01-05T06:52:16.847Z,98992.12
2023-01-05T06:53:19.427Z,98986.20
2023-01-05T06:54:21.419Z,98994.04
2023-01-05T06:55:23.605Z,98988.58
2023-01-05T06:56:25.871Z,98995.63
2023-01-05T06:57:27.750Z,98989.23
2023-01-05T06:58:29.624Z,98991.12
2023-01-05T06:59:32.301Z,98988.22
2023-01-05T07:00:34.533Z,98991.84
2023-01-05T07:01:38.830Z,98990.95
2023-01-05T07:02:41.472Z,98949.23
2023-01-05T07:03:43.401Z,98976.74
2023-01-05T07:04:45.378Z,98966.36
2023-01-05T07:05:47.256Z,98962.34
2023-01-05T07:06:49.334Z,98963.92
2023-01-05T07:07:51.407Z,98970.59
2023-01-05T07:08:53.400Z,98968.78
2023-01-05T07:09:55.783Z,98969.03
2023-01-05T07:10:57.869Z,98961.97
2023-01-05T07:11:59.738Z,98958.17
2023-01-05T07:13:01.794Z,98966.17
2023-01-05T07:14:04.086Z,98964.92
2023-01-05T07:15:07.280Z,98957.80
2023-01-05T07:16:10.360Z,98966.23
2023-01-05T07:17:13.316Z,98957.92
2023-01-05T07:18:16.048Z,98954.16
2023-01-05T07:19:18.269Z,98959.27
2023-01-05T07:20:21.246Z,98958.27
2023-01-05T07:21:23.475Z,98943.58
2023-01-05T07:22:25.346Z,98934.28
2023-01-05T07:23:29.318Z,98947.60
2023-01-05T07:24:32.359Z,98944.92
2023-01-05T07:25:34.593Z,98930.84
2023-01-05T07:26:37.030Z,98920.97
2023-01-05T07:27:38.965Z,98923.96
2023-01-05T07:28:41.346Z,98947.23
2023-01-05T07:29:44.200Z,98943.58
2023-01-05T07:30:52.798Z,98933.52
2023-01-05T07:31:55.004Z,98926.52
2023-01-05T07:34:28.696Z,98918.03
2023-01-05T07:35:32.383Z,98936.64
2023-01-05T07:36:34.749Z,98932.13
2023-01-05T07:37:36.624Z,98931.03
2023-01-05T07:38:38.522Z,98922.12
2023-01-05T07:39:40.507Z,98916.64
2023-01-05T07:40:42.993Z,98918.16
2023-01-05T07:41:45.529Z,98916.52
2023-01-05T07:42:54.143Z,98913.77
2023-01-05T07:43:56.315Z,98898.85
2023-01-05T07:44:58.202Z,98909.81
2023-01-05T07:47:16.512Z,98907.07
2023-01-05T07:48:23.393Z,98908.78
2023-01-05T07:49:22.346Z,98908.78
2023-01-05T07:50:24.953Z,98912.30
2023-01-05T07:51:27.211Z,98907.95
2023-01-05T07:52:29.391Z,98906.94
2023-01-05T07:53:38.090Z,98898.89
2023-01-05T07:54:37.174Z,98914.31
2023-01-05T07:55:39.104Z,98910.79
2023-01-05T07:56:41.589Z,98906.53
2023-01-05T07:57:43.706Z,98903.02
2023-01-05T07:58:46.597Z,98893.19
2023-01-05T07:59:48.609Z,98899.98
2023-01-05T08:00:52.541Z,98895.53
2023-01-05T08:01:54.676Z,98894.59
2023-01-05T08:02:56.832Z,98891.00
2023-01-05T08:03:59.010Z,98893.55
2023-01-05T08:05:01.348Z,98881.23
2023-01-05T08:06:12.244Z,98884.05
2023-01-05T08:07:14.595Z,98883.92
2023-01-05T08:08:23.894Z,98876.94
2023-01-05T08:09:21.375Z,98881.30
2023-01-05T08:10:23.498Z,98878.83
2023-01-05T08:11:25.499Z,98880.25
2023-01-05T08:12:28.343Z,98881.51
2023-01-05T08:13:30.914Z,98869.09
2023-01-05T08:14:32.864Z,98864.14
2023-01-05T08:15:36.855Z,98877.98
2023-01-05T08:16:39.299Z,98866.27
2023-01-05T08:17:42.409Z,98865.53
2023-01-05T08:18:44.684Z,98862.02
2023-01-05T08:19:46.661Z,98868.22
2023-01-05T08:20:55.204Z,98866.16
2023-01-05T08:21:57.237Z,98847.84
2023-01-05T08:22:59.111Z,98852.67
2023-01-05T08:24:01.758Z,98845.76
2023-01-05T08:25:04.939Z,98851.27
2023-01-05T08:26:11.021Z,98844.33
2023-01-05T08:27:13.358Z,98841.56
2023-01-05T08:28:16.143Z,98842.13
2023-01-05T08:29:18.178Z,98846.52
2023-01-05T08:30:20.610Z,98845.44
2023-01-05T08:31:25.794Z,98841.21
2023-01-05T08:32:28.214Z,98842.89
2023-01-05T08:33:30.606Z,98840.05
2023-01-05T08:34:35.016Z,98840.78
2023-01-05T08:35:41.547Z,98847.69
2023-01-05T08:36:43.730Z,98843.33
2023-01-05T08:37:45.640Z,98839.62
2023-01-05T08:38:49.941Z,98845.00
2023-01-05T08:39:51.875Z,98836.39
2023-01-05T08:40:57.264Z,98835.69
2023-01-05T08:42:02.730Z,98835.41
2023-01-05T08:43:04.443Z,98833.91
2023-01-05T08:44:09.456Z,98829.99
2023-01-05T08:45:11.368Z,98829.16
2023-01-05T08:46:13.682Z,98823.23
2023-01-05T08:47:18.261Z,98821.88
2023-01-05T08:48:19.660Z,98820.90
2023-01-05T08:49:21.893Z,98820.69
2023-01-05T08:50:24.441Z,98817.99
2023-01-05T08:51:27.503Z,98812.54
2023-01-05T08:52:29.848Z,98806.36
2023-01-05T08:53:31.752Z,98808.76
2023-01-05T08:54:34.896Z,98813.09
2023-01-05T08:55:37.345Z,98806.69
2023-01-05T08:56:40.463Z,98802.44
2023-01-05T08:57:42.548Z,98808.36
2023-01-05T08:58:44.728Z,98799.30
2023-01-05T08:59:47.088Z,98804.39
2023-01-05T09:00:49.162Z,98797.84
2023-01-05T09:01:52.471Z,98787.08
2023-01-05T09:02:55.025Z,98795.00
2023-01-05T09:03:57.251Z,98787.91
2023-01-05T09:04:59.210Z,98791.63
2023-01-05T09:06:01.348Z,98777.59
2023-01-05T09:07:03.937Z,98774.89
2023-01-05T09:08:05.876Z,98786.23
2023-01-05T09:09:07.982Z,98782.83
2023-01-05T09:10:10.741Z,98779.75
2023-01-05T09:11:15.903Z,98775.28
2023-01-05T09:12:17.989Z,98770.98
2023-01-05T09:13:20.468Z,98770.68
2023-01-05T09:14:22.446Z,98766.13
2023-01-05T09:15:24.317Z,98756.33
2023-01-05T09:17:34.265Z,98752.48
2023-01-05T09:18:39.088Z,98737.38
2023-01-05T09:19:41.085Z,98737.38
2023-01-05T09:20:43.254Z,98751.98
2023-01-05T09:21:46.132Z,98737.22
2023-01-05T09:22:48.110Z,98739.76
2023-01-05T09:23:51.138Z,98748.06
2023-01-05T09:24:53.100Z,98741.04
2023-01-05T09:25:55.023Z,98743.19
2023-01-05T09:26:58.137Z,98724.16
2023-01-05T09:28:01.420Z,98729.13
2023-01-05T09:29:03.787Z,98721.38
2023-01-05T09:30:08.643Z,98737.63
2023-01-05T09:31:19.837Z,98715.30
2023-01-05T09:32:23.363Z,98722.77
2023-01-05T09:33:25.847Z,98715.48
2023-01-05T09:34:29.102Z,98705.00
2023-01-05T09:35:31.895Z,98704.24
2023-01-05T09:36:34.002Z,98708.73
2023-01-05T09:37:35.884Z,98707.70
2023-01-05T09:38:42.060Z,98692.80
2023-01-05T09:39:41.741Z,98702.21
2023-01-05T09:40:44.147Z,98713.45
2023-01-05T09:41:49.823Z,98705.34
2023-01-05T09:42:53.761Z,98708.99
2023-01-05T09:44:01.975Z,98710.58
2023-01-05T09:45:06.427Z,98700.09
2023-01-05T09:46:15.496Z,98695.35
2023-01-05T09:47:30.351Z,98685.11
2023-01-05T09:48:41.945Z,98686.31
2023-01-05T09:49:47.403Z,98687.40
2023-01-05T09:50:51.340Z,98678.78
2023-01-05T09:52:06.755Z,98676.66
2023-01-05T09:53:11.292Z,98677.61
2023-01-05T09:54:16.675Z,98674.70
2023-01-05T09:55:22.230Z,98676.41
2023-01-05T09:57:07.847Z,98680.03
2023-01-05T09:57:39.866Z,98671.75
2023-01-05T09:58:45.089Z,98664.75
2023-01-05T09:59:53.622Z,98676.66
2023-01-05T10:01:08.746Z,98674.20
2023-01-05T10:02:23.720Z,98664.58
2023-01-05T10:04:33.297Z,98665.08
2023-01-05T10:05:39.337Z,98666.92
2023-01-05T10:06:50.082Z,98668.95
2023-01-05T10:08:04.650Z,98655.09
2023-01-05T10:09:07.780Z,98654.59
2023-01-05T10:10:33.359Z,98657.47
2023-01-05T10:11:57.495Z,98666.00
2023-01-05T10:13:02.478Z,98662.54
2023-01-05T10:14:08.284Z,98656.25
2023-01-05T10:15:13.966Z,98652.71
2023-01-05T10:16:17.302Z,98649.17
2023-01-05T10:18:30.448Z,98652.88
2023-01-05T10:19:32.610Z,98650.43
2023-01-05T10:20:41.468Z,98642.56
2023-01-05T10:22:07.288Z,98648.93
2023-01-05T10:23:29.992Z,98637.41
2023-01-05T10:26:01.120Z,98637.64
2023-01-05T10:27:26.444Z,98632.82
2023-01-05T10:28:17.338Z,98632.24
2023-01-05T10:29:23.120Z,98628.53
2023-01-05T10:30:28.524Z,98627.41
2023-01-05T10:31:53.621Z,98631.73
2023-01-05T10:34:24.390Z,98638.06
2023-01-05T10:36:00.642Z,98628.53
2023-01-05T10:37:20.337Z,98617.55
2023-01-05T10:38:35.179Z,98623.37
2023-01-05T10:39:44.007Z,98612.97
2023-01-05T10:40:49.906Z,98620.66
2023-01-05T10:42:01.427Z,98604.84
2023-01-05T10:43:05.239Z,98609.05
2023-01-05T10:44:28.072Z,98610.40
2023-01-05T10:45:31.248Z,98604.31
2023-01-05T10:46:42.654Z,98608.52
2023-01-05T10:47:42.529Z,98604.80
2023-01-05T10:48:44.790Z,98604.80
2023-01-05T10:49:47.175Z,98600.13
2023-01-05T10:50:52.596Z,98591.16
2023-01-05T10:51:59.484Z,98594.80
2023-01-05T10:53:11.440Z,98597.33
2023-01-05T10:54:20.199Z,98595.05
2023-01-05T10:55:23.899Z,98602.75
2023-01-05T10:56:26.645Z,98591.52
2023-01-05T10:57:36.873Z,98604.16
2023-01-05T11:00:16.603Z,98596.23
2023-01-05T11:01:22.698Z,98601.27
2023-01-05T11:02:28.318Z,98591.73
2023-01-05T11:04:49.489Z,98591.55
2023-01-05T11:05:51.798Z,98585.73
2023-01-05T11:06:57.539Z,98583.02
2023-01-05T11:08:03.136Z,98578.55
2023-01-05T11:09:08.432Z,98573.21
2023-01-05T11:10:27.247Z,98567.09
2023-01-05T11:11:29.408Z,98565.03
2023-01-05T11:12:31.562Z,98561.39
2023-01-05T11:13:37.031Z,98570.97
2023-01-05T11:14:44.908Z,98565.36
2023-01-05T11:15:50.618Z,98566.46
2023-01-05T11:16:57.433Z,98580.60
2023-01-05T11:17:59.651Z,98563.75
2023-01-05T11:19:04.954Z,98562.91
2023-01-05T11:20:11.067Z,98570.70
2023-01-05T11:21:17.053Z,98565.53
2023-01-05T11:22:37.522Z,98563.56
2023-01-05T11:23:45.517Z,98557.48
2023-01-05T11:24:47.742Z,98563.47
2023-01-05T11:25:49.644Z,98566.00
2023-01-05T11:26:54.825Z,98557.48
2023-01-05T11:29:11.647Z,98560.48
2023-01-05T11:30:17.895Z,98563.75
2023-01-05T11:31:20.825Z,98553.16
2023-01-05T11:32:23.680Z,98561.69
2023-01-05T11:33:28.589Z,98558.97
2023-01-05T11:34:46.376Z,98560.11
2023-01-05T11:35:48.690Z,98560.85
2023-01-05T11:37:07.413Z,98559.25
2023-01-05T11:38:05.431Z,98550.34
2023-01-05T11:39:11.101Z,98555.42
2023-01-05T11:40:17.367Z,98553.53
2023-01-05T11:41:22.255Z,98548.47
2023-01-05T11:42:28.465Z,98554.55
2023-01-05T11:43:32.245Z,98544.73
2023-01-05T11:44:35.657Z,98552.70
2023-01-05T11:45:40.853Z,98544.73
2023-01-05T11:46:43.734Z,98548.83
2023-01-05T11:47:51.963Z,98545.92
2023-01-05T11:48:56.843Z,98545.92
2023-01-05T11:50:09.521Z,98552.52
2023-01-05T11:51:14.444Z,98551.65
2023-01-05T11:52:29.137Z,98549.39
2023-01-05T11:53:34.911Z,98556.71
2023-01-05T11:54:37.177Z,98545.64
2023-01-05T11:55:39.209Z,98550.44
2023-01-05T11:56:41.440Z,98546.86
2023-01-05T11:57:43.384Z,98543.11
2023-01-05T11:58:51.961Z,98540.39
2023-01-05T11:59:54.228Z,98541.32
2023-01-05T12:01:22.848Z,98544.44
2023-01-05T12:02:31.941Z,98541.03
2023-01-05T12:04:00.415Z,98532.42
2023-01-05T12:05:08.732Z,98535.14
2023-01-05T12:06:31.767Z,98544.22
2023-01-05T12:07:36.666Z,98540.84
2023-01-05T12:08:58.172Z,98532.33
2023-01-05T12:10:30.606Z,98533.80
2023-01-05T12:12:56.475Z,98527.88
2023-01-05T12:14:14.923Z,98528.55
2023-01-05T12:15:43.523Z,98532.78
2023-01-05T12:16:54.893Z,98528.45
2023-01-05T12:18:06.663Z,98524.06
2023-01-05T12:19:18.528Z,98530.16
2023-01-05T12:20:46.952Z,98526.22
2023-01-05T12:22:00.591Z,98520.95
2023-01-05T12:23:34.198Z,98516.53
2023-01-05T12:25:01.036Z,98522.44
2023-01-05T12:26:30.999Z,98515.28
2023-01-05T12:28:01.737Z,98515.70
2023-01-05T12:34:46.455Z,98508.27
2023-01-05T12:35:55.393Z,98508.81
2023-01-05T12:37:07.454Z,98503.56
2023-01-05T12:38:48.664Z,98503.75
2023-01-05T12:40:09.699Z,98505.45
2023-01-05T12:41:31.026Z,98510.52
2023-01-05T12:42:40.008Z,98505.90
2023-01-05T12:44:05.634Z,98503.75
2023-01-05T12:45:20.646Z,98503.94
2023-01-05T12:46:29.263Z,98509.64
2023-01-05T12:47:50.278Z,98501.47
2023-01-05T12:50:22.502Z,98497.97
2023-01-05T12:51:28.229Z,98515.55
2023-01-05T12:52:36.836Z,98509.64
2023-01-05T12:53:51.914Z,98506.83
2023-01-05T12:55:06.188Z,98510.77
2023-01-05T12:57:35.733Z,98496.11
2023-01-05T12:58:41.403Z,98511.50
2023-01-05T12:59:50.042Z,98502.53
2023-01-05T13:00:55.647Z,98506.73
2023-01-05T13:02:16.463Z,98498.20
2023-01-05T13:03:31.222Z,98509.16
2023-01-05T13:04:48.473Z,98503.91
2023-01-05T13:05:56.552Z,98499.19
2023-01-05T13:07:01.704Z,98497.72
2023-01-05T13:08:16.575Z,98504.84
2023-01-05T13:09:23.740Z,98499.58
2023-01-05T13:10:50.839Z,98501.08
2023-01-05T13:11:59.371Z,98495.83
2023-01-05T13:13:05.096Z,98504.64
2023-01-05T13:14:19.544Z,98498.55
2023-01-05T13:15:28.903Z,98498.65
2023-01-05T13:16:51.680Z,98499.39
2023-01-05T13:17:58.746Z,98501.08
2023-01-05T13:19:10.791Z,98499.00